Time;durP1;ratioP1;P1;durP2;ratioP2;P2;SDS_P1;SDS_P2;PMS_P1;PMS_P2;Temp;Humidity;BMP_temperature;BMP_pressure;BME280_temperature;BME280_humidity;BME280_pressure;Samples;Min_cycle;Max_cycle;Signal;HPM_P1;HPM_P2
2023/03/07 00:01:07;;;;;;;;;17.00;12.00;;;;;-0.04;96.58;97146.47;4841380;28;103986;-73
2023/03/07 00:03:35;;;;;;;;;13.67;8.33;;;;;-0.03;96.31;97138.34;4838304;29;102330;-73
2023/03/07 00:06:07;;;;;;;;;8.67;6.67;;;;;-0.02;96.30;97136.53;4841086;28;101967;-73
2023/03/07 00:08:35;;;;;;;;;5.67;5.67;;;;;0.02;96.99;97144.97;4843300;29;101938;-73
2023/03/07 00:11:05;;;;;;;;;6.67;6.00;;;;;0.07;96.27;97142.63;4839676;28;103982;-73
2023/03/07 00:13:33;;;;;;;;;12.00;8.00;;;;;0.12;96.29;97141.13;4841482;29;102081;-73
2023/03/07 00:16:09;;;;;;;;;6.67;5.00;;;;;0.19;96.19;97143.91;4840305;28;102523;-73
2023/03/07 00:18:36;;;;;;;;;5.67;4.00;;;;;0.19;96.12;97134.09;4842160;28;102084;-73
2023/03/07 00:21:07;;;;;;;;;7.33;6.00;;;;;0.27;95.57;97134.06;4839469;28;108775;-73
2023/03/07 00:23:36;;;;;;;;;8.67;5.00;;;;;0.30;95.94;97132.91;4842246;28;102157;-73
2023/03/07 00:26:06;;;;;;;;;9.67;7.33;;;;;0.38;95.44;97140.84;4841233;28;101981;-73
2023/03/07 00:28:34;;;;;;;;;4.00;4.00;;;;;0.41;95.18;97129.84;4839060;29;102044;-73
2023/03/07 00:31:04;;;;;;;;;5.25;4.00;;;;;0.44;94.92;97138.34;4840815;28;104429;-73
2023/03/07 00:33:31;;;;;;;;;5.67;3.33;;;;;0.42;94.79;97110.25;4839331;28;102313;-72
2023/03/07 00:36:00;;;;;;;;;8.67;5.00;;;;;0.51;94.76;97130.47;4837756;28;102136;-73
2023/03/07 00:38:29;;;;;;;;;4.33;4.00;;;;;0.54;94.06;97134.63;4841730;28;102266;-73
2023/03/07 00:41:05;;;;;;;;;8.00;4.00;;;;;0.56;94.04;97135.28;4840079;28;104037;-73
2023/03/07 00:43:32;;;;;;;;;6.00;6.00;;;;;0.53;93.47;97117.84;4838963;28;102764;-72
2023/03/07 00:46:00;;;;;;;;;5.50;4.25;;;;;0.56;93.73;97125.47;4838505;28;102025;-73
2023/03/07 00:48:28;;;;;;;;;5.00;4.67;;;;;0.56;93.51;97130.78;4842141;28;102136;-73
2023/03/07 00:50:55;;;;;;;;;6.00;6.00;;;;;0.54;93.21;97119.47;4839200;29;103958;-72
2023/03/07 00:53:23;;;;;;;;;6.00;6.00;;;;;0.54;93.26;97113.34;4838477;29;102230;-72
2023/03/07 00:55:54;;;;;;;;;8.00;6.00;;;;;0.53;93.26;97107.22;4826472;29;102032;-73
2023/03/07 00:58:21;;;;;;;;;10.00;8.00;;;;;0.57;93.52;97107.69;4824498;29;101986;-73
2023/03/07 01:00:49;;;;;;;;;10.00;9.00;;;;;0.58;93.41;97109.34;4822053;29;104086;-72
2023/03/07 01:03:16;;;;;;;;;12.00;9.67;;;;;0.57;92.54;97094.38;4824407;29;102315;-73
2023/03/07 01:05:44;;;;;;;;;6.00;5.00;;;;;0.55;92.74;97099.88;4824654;29;102568;-73
2023/03/07 01:08:11;;;;;;;;;4.33;4.00;;;;;0.63;92.34;97105.13;4820437;29;101966;-73
2023/03/07 01:10:38;;;;;;;;;8.75;2.00;;;;;0.60;92.80;97094.03;4825275;29;104211;-71
2023/03/07 01:13:05;;;;;;;;;12.25;5.50;;;;;0.64;92.42;97092.66;4826952;29;103082;-72
2023/03/07 01:15:32;;;;;;;;;6.50;5.00;;;;;0.66;92.38;97094.16;4822030;29;102056;-71
2023/03/07 01:17:59;;;;;;;;;9.00;6.00;;;;;0.65;92.00;97089.84;4824185;29;102172;-71
2023/03/07 01:20:26;;;;;;;;;4.67;4.67;;;;;0.57;91.94;97073.09;4825097;29;104069;-71
2023/03/07 01:22:53;;;;;;;;;5.25;2.50;;;;;0.62;91.60;97090.19;4830134;29;102036;-72
2023/03/07 01:25:20;;;;;;;;;9.00;6.50;;;;;0.64;92.03;97088.19;4821309;29;103211;-71
2023/03/07 01:27:47;;;;;;;;;8.00;5.00;;;;;0.63;91.83;97086.50;4827109;29;101952;-72
2023/03/07 01:30:14;;;;;;;;;11.33;6.67;;;;;0.57;91.79;97075.78;4822855;29;104270;-72
2023/03/07 01:32:41;;;;;;;;;8.00;5.67;;;;;0.67;91.72;97098.47;4820779;29;102463;-71
2023/03/07 01:35:08;;;;;;;;;8.00;6.00;;;;;0.67;91.79;97093.16;4822865;29;101947;-71
2023/03/07 01:37:35;;;;;;;;;8.00;6.67;;;;;0.63;91.86;97083.06;4827069;29;102881;-71
2023/03/07 01:40:03;;;;;;;;;8.00;6.00;;;;;0.64;91.47;97082.84;4823256;29;104127;-71
2023/03/07 01:42:31;;;;;;;;;7.50;7.00;;;;;0.70;91.44;97091.97;4823947;29;102133;-71
2023/03/07 01:45:03;;;;;;;;;8.00;6.00;;;;;0.73;91.34;97094.28;4821810;29;102407;-71
2023/03/07 01:47:30;;;;;;;;;8.67;8.00;;;;;0.73;91.42;97089.78;4817180;29;102903;-71
2023/03/07 01:49:59;;;;;;;;;8.33;6.67;;;;;0.75;91.61;97090.44;4813268;29;104018;-71
2023/03/07 01:52:33;;;;;;;;;12.67;12.67;;;;;0.74;90.84;97086.13;4824124;29;102100;-71
2023/03/07 01:55:09;;;;;;;;;11.75;6.00;;;;;0.65;90.72;97067.72;4823738;29;103222;-71
2023/03/07 01:57:39;;;;;;;;;6.00;5.67;;;;;0.75;91.15;97085.13;4823911;29;101978;-72
2023/03/07 02:00:13;;;;;;;;;7.00;5.00;;;;;0.73;91.18;97081.81;4822784;29;107345;-71
2023/03/07 02:02:44;;;;;;;;;5.67;4.67;;;;;0.71;90.74;97067.88;4819521;29;102150;-71
2023/03/07 02:05:26;;;;;;;;;4.75;4.00;;;;;0.72;90.72;97071.34;4817764;29;101991;-71
2023/03/07 02:08:11;;;;;;;;;5.75;4.25;;;;;0.70;90.65;97066.19;4817186;29;102220;-71
2023/03/07 02:11:02;;;;;;;;;9.67;6.00;;;;;0.66;90.55;97059.59;4820625;29;107806;-71
2023/03/07 02:13:43;;;;;;;;;8.67;5.67;;;;;0.66;90.77;97064.06;4823340;29;102099;-72
2023/03/07 02:16:24;;;;;;;;;4.75;4.00;;;;;0.68;90.99;97068.19;4822506;29;102035;-72
2023/03/07 02:19:22;;;;;;;;;12.00;8.00;;;;;0.67;90.68;97077.22;4821145;29;102224;-72
2023/03/07 02:22:22;;;;;;;;;13.00;12.00;;;;;0.69;90.62;97075.19;4818839;29;109114;-72
2023/03/07 02:25:15;;;;;;;;;15.00;13.00;;;;;0.70;90.09;97071.53;4820358;29;102056;-71
2023/03/07 02:27:44;;;;;;;;;12.00;10.00;;;;;0.70;90.12;97063.53;4817866;29;102245;-71
2023/03/07 02:30:11;;;;;;;;;17.00;12.00;;;;;0.69;90.47;97067.19;4821280;29;102310;-71
2023/03/07 02:32:39;;;;;;;;;4.25;1.25;;;;;0.71;90.06;97064.38;4822940;29;104145;-71
2023/03/07 02:35:14;;;;;;;;;10.67;8.33;;;;;0.70;89.65;97062.72;4825794;29;102110;-71
2023/03/07 02:37:44;;;;;;;;;6.67;5.00;;;;;0.70;89.93;97058.22;4820289;29;101938;-72
2023/03/07 02:40:15;;;;;;;;;8.50;5.50;;;;;0.72;89.85;97056.19;4823095;29;102314;-72
2023/03/07 02:42:44;;;;;;;;;10.00;9.33;;;;;0.71;89.75;97059.88;4821888;29;104080;-72
2023/03/07 02:45:16;;;;;;;;;12.00;7.25;;;;;0.71;89.96;97056.41;4817835;29;102238;-72
2023/03/07 02:47:44;;;;;;;;;9.33;6.00;;;;;0.73;89.56;97054.38;4800082;29;102028;-72
2023/03/07 02:50:12;;;;;;;;;8.33;5.33;;;;;0.73;89.63;97060.53;4822157;29;102027;-72
2023/03/07 02:52:40;;;;;;;;;9.00;7.33;;;;;0.74;89.33;97050.72;4823024;29;103977;-72
2023/03/07 02:55:08;;;;;;;;;10.75;8.00;;;;;0.75;89.27;97058.53;4825146;28;102300;-72
2023/03/07 02:57:35;;;;;;;;;9.75;5.25;;;;;0.65;89.10;97041.97;4825194;29;102298;-71
2023/03/07 03:00:06;;;;;;;;;5.00;4.33;;;;;0.74;89.35;97056.88;4822065;29;102324;-71
2023/03/07 03:02:33;;;;;;;;;2.50;1.50;;;;;0.73;89.20;97049.06;4819547;29;104028;-72
2023/03/07 03:05:00;;;;;;;;;2.50;2.50;;;;;0.69;89.17;97048.59;4807097;29;103097;-72
2023/03/07 03:07:27;;;;;;;;;6.67;4.33;;;;;0.72;89.35;97060.72;4822308;29;103139;-72
2023/03/07 03:09:54;;;;;;;;;8.25;4.25;;;;;0.73;89.25;97060.53;4825622;29;101987;-71
2023/03/07 03:12:21;;;;;;;;;8.75;5.00;;;;;0.72;89.11;97058.84;4819509;29;104197;-71
2023/03/07 03:14:48;;;;;;;;;8.25;5.25;;;;;0.64;89.31;97042.97;4821561;29;102230;-72
2023/03/07 03:17:15;;;;;;;;;9.75;8.00;;;;;0.71;88.85;97051.91;4821841;29;101951;-72
2023/03/07 03:19:42;;;;;;;;;7.33;5.00;;;;;0.77;89.00;97067.13;4818590;29;102451;-72
2023/03/07 03:22:09;;;;;;;;;7.00;5.00;;;;;0.78;89.05;97057.34;4820684;29;104193;-72
2023/03/07 03:24:41;;;;;;;;;8.00;5.25;;;;;0.76;88.72;97059.34;4824404;29;102281;-73
2023/03/07 03:27:08;;;;;;;;;10.67;6.67;;;;;0.79;89.40;97064.31;4820794;29;102334;-72
2023/03/07 03:29:35;;;;;;;;;8.50;6.00;;;;;0.79;88.88;97059.00;4824511;29;101830;-72
2023/03/07 03:32:03;;;;;;;;;4.00;2.00;;;;;0.59;88.91;97025.88;4819698;29;104020;-72
2023/03/07 03:34:30;;;;;;;;;4.00;4.00;;;;;0.86;88.97;97065.25;4822046;29;102061;-72
2023/03/07 03:36:57;;;;;;;;;5.25;5.00;;;;;0.86;88.78;97066.06;4823987;29;101989;-71
2023/03/07 03:39:24;;;;;;;;;8.75;5.75;;;;;0.86;89.00;97066.06;4823247;29;102822;-72
2023/03/07 03:41:51;;;;;;;;;8.50;5.25;;;;;0.87;88.72;97057.09;4821945;29;104021;-72
2023/03/07 03:44:17;;;;;;;;;5.00;4.00;;;;;0.88;88.30;97064.06;4823180;29;101853;-72
2023/03/07 03:46:47;;;;;;;;;5.50;4.00;;;;;0.90;88.72;97062.03;4819459;29;102445;-71
2023/03/07 03:49:15;;;;;;;;;3.50;2.50;;;;;0.85;88.59;97056.47;4821386;29;104376;-72
2023/03/07 03:51:42;;;;;;;;;3.00;2.00;;;;;0.88;88.35;97064.06;4818045;29;103527;-71
2023/03/07 03:54:09;;;;;;;;;4.75;4.00;;;;;0.86;88.68;97065.25;4824190;29;102052;-71
2023/03/07 03:56:36;;;;;;;;;5.00;4.00;;;;;0.86;88.24;97066.06;4827271;29;103982;-72
2023/03/07 03:59:03;;;;;;;;;2.00;2.00;;;;;0.76;88.38;97048.72;4804682;29;102335;-72
2023/03/07 04:01:30;;;;;;;;;3.50;2.00;;;;;0.87;88.94;97064.25;4819844;29;104047;-72
2023/03/07 04:03:58;;;;;;;;;2.00;2.00;;;;;0.84;88.13;97056.63;4820188;29;102254;-72
2023/03/07 04:06:28;;;;;;;;;4.75;4.00;;;;;0.83;87.93;97057.63;4820723;29;101993;-72
2023/03/07 04:08:56;;;;;;;;;5.50;5.00;;;;;0.86;88.04;97065.25;4822663;29;103184;-72
2023/03/07 04:11:23;;;;;;;;;4.00;4.00;;;;;0.82;88.01;97061.28;4823195;29;104012;-72
2023/03/07 04:13:51;;;;;;;;;11.50;8.50;;;;;0.82;87.74;97064.78;4821270;29;102274;-72
2023/03/07 04:16:19;;;;;;;;;6.50;5.25;;;;;0.83;87.82;97066.44;4822818;29;102224;-72
2023/03/07 04:18:45;;;;;;;;;12.00;9.75;;;;;0.85;87.15;97074.25;4821331;29;101915;-72
2023/03/07 04:21:13;;;;;;;;;15.00;5.75;;;;;0.86;87.14;97066.06;4819447;29;104026;-72
2023/03/07 04:23:40;;;;;;;;;9.00;5.50;;;;;0.88;87.65;97061.41;4806388;29;102404;-72
2023/03/07 04:26:08;;;;;;;;;5.00;4.00;;;;;0.92;87.61;97069.03;4825447;29;102017;-72
2023/03/07 04:31:13;;;;;;;;;10.00;8.00;;;;;0.83;87.92;97058.47;4819968;29;108768;-72
2023/03/07 04:33:41;;;;;;;;;10.00;10.00;;;;;0.92;87.22;97077.00;4823336;29;102374;-72
2023/03/07 04:36:09;;;;;;;;;11.50;9.75;;;;;0.92;87.60;97069.03;4832365;29;102228;-72
2023/03/07 04:38:37;;;;;;;;;12.33;10.00;;;;;0.90;87.60;97072.69;4829554;29;102328;-72
2023/03/07 04:41:12;;;;;;;;;16.67;9.33;;;;;0.82;87.50;97056.78;4826116;29;108743;-71
2023/03/07 04:43:39;;;;;;;;;10.67;8.00;;;;;0.95;88.00;97073.97;4825174;29;104295;-71
2023/03/07 04:46:07;;;;;;;;;8.00;6.00;;;;;0.95;87.67;97071.31;4816227;29;102417;-71
2023/03/07 04:48:35;;;;;;;;;8.00;6.00;;;;;0.98;87.55;97073.66;4828225;29;102103;-72
2023/03/07 04:51:02;;;;;;;;;8.67;7.33;;;;;0.97;87.14;97069.31;4829760;29;103962;-72
2023/03/07 04:53:29;;;;;;;;;10.50;7.25;;;;;0.93;87.63;97054.72;4824935;29;104237;-72
2023/03/07 04:56:00;;;;;;;;;8.00;7.00;;;;;0.84;87.79;97040.66;4839779;28;102364;-72
2023/03/07 04:58:29;;;;;;;;;7.25;4.00;;;;;0.99;87.51;97062.81;4845740;28;102405;-72
2023/03/07 05:00:56;;;;;;;;;11.50;7.50;;;;;0.97;87.21;97062.19;4844742;28;104090;-72
2023/03/07 05:03:25;;;;;;;;;8.00;6.00;;;;;0.95;87.12;97058.03;4844830;29;102131;-72
2023/03/07 05:05:52;;;;;;;;;9.25;6.00;;;;;0.98;87.34;97060.34;4846181;28;102166;-72
2023/03/07 05:08:19;;;;;;;;;5.50;5.00;;;;;0.91;88.02;97054.91;4843506;29;104483;-72
2023/03/07 05:10:46;;;;;;;;;7.50;5.25;;;;;0.91;87.30;97049.56;4845098;29;103997;-72
2023/03/07 05:13:13;;;;;;;;;8.33;8.33;;;;;0.88;87.19;97049.94;4845942;29;102216;-72
2023/03/07 05:15:40;;;;;;;;;10.25;7.50;;;;;0.92;87.02;97050.41;4844894;28;101961;-72
2023/03/07 05:18:07;;;;;;;;;12.00;8.33;;;;;0.89;86.82;97051.59;4848873;28;102214;-72
2023/03/07 05:20:34;;;;;;;;;14.00;10.25;;;;;0.71;86.94;97035.94;4845915;28;109253;-72
2023/03/07 05:23:01;;;;;;;;;11.00;8.75;;;;;0.82;87.23;97054.13;4846139;28;103474;-72
2023/03/07 05:25:28;;;;;;;;;12.00;9.25;;;;;0.80;86.63;97056.16;4846643;28;102532;-72
2023/03/07 05:27:55;;;;;;;;;6.00;6.00;;;;;0.79;86.84;97059.81;4845728;29;103126;-72
2023/03/07 05:30:22;;;;;;;;;7.25;7.00;;;;;0.78;86.41;97054.66;4844769;28;104082;-72
2023/03/07 05:32:50;;;;;;;;;12.25;5.50;;;;;0.44;86.18;96996.59;4845999;28;102701;-72
2023/03/07 05:35:17;;;;;;;;;9.25;4.00;;;;;0.71;86.34;97045.75;4846598;28;102059;-72
2023/03/07 05:37:44;;;;;;;;;9.00;8.00;;;;;0.69;86.18;97058.38;4845918;28;102672;-72
2023/03/07 05:40:12;;;;;;;;;12.00;8.00;;;;;0.63;86.02;97054.59;4840466;28;103357;-72
2023/03/07 05:42:40;;;;;;;;;8.00;6.50;;;;;0.58;85.84;97035.72;4846970;28;102353;-71
2023/03/07 05:45:08;;;;;;;;;5.25;5.00;;;;;0.60;86.00;97049.66;4845766;28;102388;-72
2023/03/07 05:47:35;;;;;;;;;4.25;3.50;;;;;0.61;86.11;97046.00;4843979;28;102377;-72
2023/03/07 05:50:02;;;;;;;;;7.25;4.75;;;;;0.53;85.92;97038.06;4839321;28;104235;-72
2023/03/07 05:52:29;;;;;;;;;6.50;4.00;;;;;0.61;86.43;97051.31;4840661;28;105138;-71
2023/03/07 05:54:56;;;;;;;;;8.00;5.00;;;;;0.55;85.81;97033.38;4836461;29;102247;-72
2023/03/07 05:57:23;;;;;;;;;7.33;5.67;;;;;0.63;85.87;97057.25;4821100;29;102068;-72
2023/03/07 05:59:50;;;;;;;;;5.00;4.25;;;;;0.66;85.77;97054.28;4822194;29;104054;-72
2023/03/07 06:02:17;;;;;;;;;8.67;5.00;;;;;0.70;85.69;97057.41;4821107;29;102026;-71
2023/03/07 06:04:45;;;;;;;;;6.67;5.67;;;;;0.67;85.29;97047.94;4825396;29;106437;-71
2023/03/07 06:07:12;;;;;;;;;5.50;5.50;;;;;0.75;85.08;97060.34;4825145;29;102501;-72
2023/03/07 06:09:39;;;;;;;;;8.00;6.00;;;;;0.77;84.97;97050.34;4823212;29;104104;-71
2023/03/07 06:12:09;;;;;;;;;10.33;9.00;;;;;0.80;84.51;97058.81;4826424;29;103123;-71
2023/03/07 06:14:36;;;;;;;;;11.67;10.33;;;;;0.84;84.32;97052.13;4824031;29;101992;-72
2023/03/07 06:17:04;;;;;;;;;8.00;4.00;;;;;0.89;84.47;97054.25;4825261;29;102233;-72
2023/03/07 06:19:32;;;;;;;;;19.00;13.00;;;;;0.98;83.64;97053.19;4822188;29;104176;-72
2023/03/07 06:21:59;;;;;;;;;8.75;7.75;;;;;1.05;83.91;97042.66;4823098;29;102919;-71
2023/03/07 06:24:26;;;;;;;;;9.00;8.25;;;;;1.13;83.57;97048.72;4824065;29;103160;-72
2023/03/07 06:26:53;;;;;;;;;12.00;9.33;;;;;1.19;82.99;97045.34;4823028;29;102022;-72
2023/03/07 06:29:20;;;;;;;;;12.67;10.00;;;;;1.21;83.12;97042.50;4818645;29;104077;-72
2023/03/07 06:31:47;;;;;;;;;10.67;10.67;;;;;1.31;82.43;97048.38;4823418;29;102092;-72
2023/03/07 06:34:14;;;;;;;;;13.00;9.33;;;;;1.42;81.75;97050.63;4809256;29;102128;-71
2023/03/07 06:36:41;;;;;;;;;16.00;13.00;;;;;1.45;81.58;97039.59;4819846;29;102848;-71
2023/03/07 06:39:08;;;;;;;;;20.33;14.00;;;;;1.39;80.92;97024.38;4825984;29;104072;-72
2023/03/07 06:41:35;;;;;;;;;20.50;16.00;;;;;1.57;80.13;97046.16;4824794;29;102064;-72
2023/03/07 06:44:02;;;;;;;;;16.33;13.67;;;;;1.66;81.01;97039.72;4822902;29;101883;-72
2023/03/07 06:46:30;;;;;;;;;18.75;15.50;;;;;1.69;80.84;97041.16;4821351;29;105160;-72
2023/03/07 06:48:57;;;;;;;;;19.67;15.67;;;;;1.72;79.82;97032.81;4823816;29;104061;-71
2023/03/07 06:51:24;;;;;;;;;25.50;17.00;;;;;1.90;79.97;97046.56;4820955;29;102198;-72
2023/03/07 06:53:51;;;;;;;;;19.33;15.67;;;;;2.00;80.29;97043.63;4819888;29;102165;-71
2023/03/07 06:56:18;;;;;;;;;25.25;18.00;;;;;2.05;79.27;97036.75;4806451;29;102359;-72
2023/03/07 06:58:45;;;;;;;;;26.33;21.00;;;;;2.11;78.81;97037.84;4822630;29;104258;-72
2023/03/07 07:01:20;;;;;;;;;17.25;13.25;;;;;2.23;78.91;97037.16;4816835;29;102675;-72
2023/03/07 07:03:47;;;;;;;;;17.50;16.25;;;;;2.28;78.13;97039.28;4818207;29;102396;-71
2023/03/07 07:06:14;;;;;;;;;25.75;19.25;;;;;2.32;77.25;97043.22;4822556;29;102795;-72
2023/03/07 07:08:41;;;;;;;;;19.00;16.33;;;;;2.36;77.97;97036.50;4819547;29;103905;-72
2023/03/07 07:11:08;;;;;;;;;22.75;20.00;;;;;2.41;77.55;97041.25;4822133;29;101982;-72
2023/03/07 07:13:35;;;;;;;;;19.75;16.75;;;;;2.50;77.93;97035.63;4823371;29;101982;-71
2023/03/07 07:16:04;;;;;;;;;19.00;16.00;;;;;2.54;76.63;97023.56;4822471;29;102266;-72
2023/03/07 07:18:32;;;;;;;;;18.67;16.33;;;;;2.67;76.75;97031.69;4820781;29;104119;-72
2023/03/07 07:20:59;;;;;;;;;19.50;15.00;;;;;2.69;77.09;97029.69;4823436;29;102372;-72
2023/03/07 07:23:26;;;;;;;;;36.00;29.33;;;;;2.67;76.43;97015.69;4822593;29;102116;-72
2023/03/07 07:25:53;;;;;;;;;35.00;30.33;;;;;2.81;75.18;97031.81;4820086;29;102265;-72
2023/03/07 07:28:20;;;;;;;;;32.33;27.67;;;;;2.87;75.76;97028.41;4820988;29;104369;-72
2023/03/07 07:30:47;;;;;;;;;32.33;24.00;;;;;2.90;75.31;97025.34;4819537;29;101986;-71
2023/03/07 07:33:14;;;;;;;;;30.50;26.00;;;;;2.92;74.89;97023.31;4819813;29;101915;-72
2023/03/07 07:35:42;;;;;;;;;24.25;20.75;;;;;3.00;75.43;97032.00;4822248;29;102008;-71
2023/03/07 07:38:10;;;;;;;;;34.25;23.75;;;;;3.12;74.35;97026.97;4822428;29;103992;-71
2023/03/07 07:40:38;;;;;;;;;27.75;22.50;;;;;3.19;74.36;97025.19;4824179;29;102057;-72
2023/03/07 07:43:05;;;;;;;;;32.00;25.50;;;;;3.14;75.14;97016.94;4822338;29;102289;-71
2023/03/07 07:45:32;;;;;;;;;31.50;24.25;;;;;3.30;75.06;97027.31;4824310;29;102014;-71
2023/03/07 07:47:59;;;;;;;;;24.75;20.25;;;;;3.42;73.57;97028.44;4821641;29;104085;-71
2023/03/07 07:50:26;;;;;;;;;29.50;28.00;;;;;3.37;73.58;97030.88;4823294;29;102640;-72
2023/03/07 07:52:53;;;;;;;;;27.33;25.67;;;;;3.45;72.50;97025.38;4822568;29;102017;-70
2023/03/07 07:55:20;;;;;;;;;32.75;30.00;;;;;3.59;71.66;97029.81;4833108;28;102125;-71
2023/03/07 07:57:47;;;;;;;;;27.75;26.25;;;;;3.65;71.03;97020.16;4840889;28;104206;-72
2023/03/07 08:00:19;;;;;;;;;28.50;23.75;;;;;3.63;70.55;97021.38;4842160;28;102140;-71
2023/03/07 08:02:50;;;;;;;;;29.00;25.75;;;;;3.55;72.06;97009.84;4838831;28;101980;-71
2023/03/07 08:05:19;;;;;;;;;26.00;20.75;;;;;3.66;71.13;97024.47;4842707;28;101887;-72
2023/03/07 08:07:46;;;;;;;;;24.25;19.25;;;;;3.63;71.19;97013.38;4840991;28;104438;-71
2023/03/07 08:10:14;;;;;;;;;22.00;18.75;;;;;3.73;69.86;97011.19;4841487;29;101971;-71
2023/03/07 08:12:43;;;;;;;;;24.75;19.25;;;;;3.78;69.33;97004.19;4837370;28;101983;-72
2023/03/07 08:15:11;;;;;;;;;23.25;18.50;;;;;3.85;69.90;96998.91;4841960;28;102410;-70
2023/03/07 08:17:38;;;;;;;;;24.00;19.75;;;;;3.92;70.06;96994.38;4842616;29;104209;-71
2023/03/07 08:20:07;;;;;;;;;21.00;17.00;;;;;4.01;68.08;96995.88;4842011;28;103063;-71
2023/03/07 08:22:37;;;;;;;;;20.25;17.25;;;;;4.22;68.75;96995.78;4841512;28;101997;-71
2023/03/07 08:25:05;;;;;;;;;17.25;15.25;;;;;4.41;70.28;97002.22;4841850;28;102093;-72
2023/03/07 08:27:32;;;;;;;;;28.25;20.25;;;;;4.54;67.35;97004.09;4840871;29;104057;-71
2023/03/07 08:29:59;;;;;;;;;28.50;20.25;;;;;4.60;68.41;96995.25;4841427;29;102382;-71
2023/03/07 08:32:27;;;;;;;;;20.25;18.00;;;;;4.61;66.37;96989.69;4840541;28;102329;-71
2023/03/07 08:34:54;;;;;;;;;20.50;17.50;;;;;4.59;66.66;96996.28;4842890;29;102095;-71
2023/03/07 08:37:20;;;;;;;;;23.50;20.25;;;;;4.63;65.91;96993.00;4842838;28;104225;-71
2023/03/07 08:39:47;;;;;;;;;24.25;19.50;;;;;4.57;67.12;96982.28;4841716;28;101810;-70
2023/03/07 08:42:14;;;;;;;;;26.00;25.00;;;;;4.60;67.45;96998.75;4840790;28;106911;-71
2023/03/07 08:44:41;;;;;;;;;22.50;20.50;;;;;4.79;66.28;97000.63;4837868;28;103025;-70
2023/03/07 08:47:10;;;;;;;;;21.25;16.25;;;;;4.95;67.71;97007.47;4843991;28;103930;-71
2023/03/07 08:49:37;;;;;;;;;20.25;17.00;;;;;5.00;65.02;96991.59;4842217;28;102221;-71
2023/03/07 08:52:04;;;;;;;;;21.00;16.25;;;;;5.11;65.04;97001.69;4840153;29;102807;-71
2023/03/07 08:54:31;;;;;;;;;23.25;17.00;;;;;5.25;65.00;97003.34;4839737;28;102145;-71
2023/03/07 08:56:59;;;;;;;;;26.25;23.25;;;;;5.20;66.29;96999.63;4821252;29;104070;-71
2023/03/07 08:59:26;;;;;;;;;24.25;20.25;;;;;5.33;65.42;96996.94;4821567;29;102058;-71
2023/03/07 09:01:55;;;;;;;;;23.50;20.75;;;;;5.33;63.91;96995.09;4821461;29;101966;-71
2023/03/07 09:04:23;;;;;;;;;21.75;19.00;;;;;5.25;63.89;96987.28;4824359;29;102360;-71
2023/03/07 09:06:50;;;;;;;;;28.50;25.00;;;;;5.16;62.74;97001.91;4822767;29;104133;-72
2023/03/07 09:09:17;;;;;;;;;24.50;21.25;;;;;5.13;63.09;96994.28;4823128;29;102247;-71
2023/03/07 09:11:44;;;;;;;;;29.00;23.25;;;;;5.16;62.91;96996.56;4822001;29;101818;-71
2023/03/07 09:14:11;;;;;;;;;25.50;19.00;;;;;5.24;63.90;96979.44;4817281;29;101959;-71
2023/03/07 09:16:38;;;;;;;;;36.50;28.00;;;;;5.33;62.70;96980.88;4823869;29;104169;-71
2023/03/07 09:19:05;;;;;;;;;34.75;29.75;;;;;5.45;62.14;96973.84;4825484;29;101940;-71
2023/03/07 09:21:32;;;;;;;;;41.50;35.50;;;;;5.55;62.40;96982.28;4825164;29;101968;-71
2023/03/07 09:23:59;;;;;;;;;28.00;23.75;;;;;5.59;62.44;96977.31;4825713;29;101973;-71
2023/03/07 09:26:26;;;;;;;;;31.75;25.75;;;;;5.52;62.00;96974.66;4825199;29;104168;-71
2023/03/07 09:28:52;;;;;;;;;46.75;36.75;;;;;5.35;61.08;96968.94;4811313;29;102112;-72
2023/03/07 09:31:20;;;;;;;;;49.00;36.50;;;;;5.27;61.78;96969.13;4823994;29;102008;-71
2023/03/07 09:33:47;;;;;;;;;39.25;32.25;;;;;5.23;62.72;96967.06;4826067;29;101981;-71
2023/03/07 09:36:15;;;;;;;;;41.75;31.00;;;;;5.25;61.98;96973.88;4823247;29;103974;-71
2023/03/07 09:38:42;;;;;;;;;33.75;29.75;;;;;5.33;62.77;96965.63;4824153;29;102114;-72
2023/03/07 09:41:39;;;;;;;;;50.75;37.50;;;;;5.38;62.28;96957.78;4825420;29;102155;-72
2023/03/07 09:44:16;;;;;;;;;35.00;25.75;;;;;5.51;62.23;96958.78;4824131;29;102075;-72
2023/03/07 09:46:52;;;;;;;;;38.75;32.75;;;;;5.56;61.66;96954.44;4818807;29;108700;-72
2023/03/07 09:49:37;;;;;;;;;36.75;26.50;;;;;5.56;61.75;96953.63;4820903;29;102220;-72
2023/03/07 09:52:13;;;;;;;;;38.25;33.75;;;;;5.58;63.08;96940.84;4823263;29;101988;-72
2023/03/07 09:54:45;;;;;;;;;29.00;24.50;;;;;5.49;61.11;96936.75;4830247;29;102056;-72
2023/03/07 09:57:25;;;;;;;;;40.75;32.25;;;;;5.26;62.33;96937.19;4836271;28;108565;-72
2023/03/07 10:00:17;;;;;;;;;12.50;12.50;;;;;5.18;62.79;96942.78;4842874;28;102427;-72
2023/03/07 10:02:51;;;;;;;;;35.50;25.50;;;;;5.06;62.93;96950.59;4839619;28;101818;-72
2023/03/07 10:05:24;;;;;;;;;33.25;26.75;;;;;5.00;62.72;96946.06;4842838;29;102403;-72
2023/03/07 10:07:52;;;;;;;;;30.50;23.25;;;;;5.11;62.18;96948.13;4844460;28;103940;-72
2023/03/07 10:10:25;;;;;;;;;29.75;26.00;;;;;5.19;60.98;96942.53;4843037;28;101935;-72
2023/03/07 10:13:08;;;;;;;;;35.00;25.00;;;;;5.24;61.73;96942.75;4844039;29;102119;-72
2023/03/07 10:15:47;;;;;;;;;36.25;26.25;;;;;5.37;60.58;96941.91;4843527;28;102174;-71
2023/03/07 10:18:32;;;;;;;;;28.50;23.25;;;;;5.57;60.89;96947.22;4836422;28;108759;-71
2023/03/07 10:21:47;;;;;;;;;32.75;22.00;;;;;5.61;59.41;96921.66;4843593;28;101964;-72
2023/03/07 10:24:26;;;;;;;;;32.00;26.25;;;;;5.70;58.71;96926.56;4837756;28;102854;-72
2023/03/07 10:27:04;;;;;;;;;19.25;16.75;;;;;5.70;58.44;96917.69;4840315;28;102169;-72
2023/03/07 10:29:53;;;;;;;;;24.25;21.50;;;;;5.96;57.74;96923.00;4841809;28;104188;-72
2023/03/07 10:32:44;;;;;;;;;22.50;21.00;;;;;6.16;57.51;96904.94;4842231;28;102407;-73
2023/03/07 10:35:11;;;;;;;;;23.00;18.50;;;;;6.21;54.40;96907.78;4840816;28;102411;-71
2023/03/07 10:37:49;;;;;;;;;19.75;15.75;;;;;6.30;55.10;96905.69;4844260;28;102413;-72
2023/03/07 10:40:24;;;;;;;;;18.00;17.00;;;;;6.33;54.04;96913.31;4836699;28;108559;-72
2023/03/07 10:42:53;;;;;;;;;24.75;20.25;;;;;6.07;55.11;96895.50;4844006;28;103998;-72
2023/03/07 10:45:20;;;;;;;;;22.25;18.75;;;;;6.08;54.71;96907.84;4842660;28;102002;-70
2023/03/07 10:47:47;;;;;;;;;19.75;15.00;;;;;6.05;54.09;96900.25;4839975;28;102226;-71
2023/03/07 10:50:37;;;;;;;;;19.50;15.75;;;;;6.03;54.69;96899.66;4842221;28;104067;-72
2023/03/07 10:53:17;;;;;;;;;21.50;14.75;;;;;5.93;54.77;96888.56;4841888;28;102352;-72
2023/03/07 10:55:45;;;;;;;;;20.25;16.00;;;;;5.93;55.76;96888.56;4838183;29;102053;-71
2023/03/07 10:58:18;;;;;;;;;15.00;15.00;;;;;5.72;55.69;96896.84;4843854;28;102252;-71
2023/03/07 11:00:56;;;;;;;;;14.00;11.00;;;;;5.70;56.01;96888.19;4841595;28;104063;-71
2023/03/07 11:03:30;;;;;;;;;23.00;17.25;;;;;5.73;55.29;96888.59;4840382;28;102072;-72
2023/03/07 11:06:27;;;;;;;;;20.25;17.00;;;;;5.73;55.30;96887.78;4837299;28;102164;-72
2023/03/07 11:08:57;;;;;;;;;19.50;17.00;;;;;5.50;55.68;96877.53;4842123;28;102604;-72
2023/03/07 11:11:30;;;;;;;;;21.75;17.75;;;;;5.65;55.79;96880.78;4841251;28;103220;-72
2023/03/07 11:14:09;;;;;;;;;18.00;15.50;;;;;5.72;55.79;96881.56;4842958;28;102203;-71
2023/03/07 11:16:49;;;;;;;;;23.75;17.50;;;;;5.79;54.92;96870.84;4842459;28;102165;-72
2023/03/07 11:19:39;;;;;;;;;21.50;18.50;;;;;5.87;55.36;96865.25;4840484;28;102305;-72
2023/03/07 11:22:32;;;;;;;;;23.00;19.25;;;;;5.84;54.81;96862.97;4840474;28;104043;-72
2023/03/07 11:25:14;;;;;;;;;18.25;17.25;;;;;5.99;56.35;96866.22;4839168;28;102240;-72
2023/03/07 11:27:44;;;;;;;;;18.25;14.50;;;;;6.02;54.45;96868.50;4844179;28;102086;-72
2023/03/07 11:30:32;;;;;;;;;20.00;17.00;;;;;5.86;55.65;96858.22;4844277;28;102096;-72
2023/03/07 11:33:08;;;;;;;;;15.25;15.25;;;;;5.71;54.40;96863.03;4838124;28;108845;-72
2023/03/07 11:35:57;;;;;;;;;19.50;16.75;;;;;5.89;55.28;96851.66;4843136;28;102227;-72
2023/03/07 11:38:39;;;;;;;;;20.00;17.75;;;;;5.85;55.22;96837.81;4838901;28;102328;-72
2023/03/07 11:41:29;;;;;;;;;23.50;18.75;;;;;6.05;55.01;96854.63;4842599;28;102228;-72